sensor_id;sensor_type;location;lat;lon;timestamp;temperature;humidity
2441;DHT22;1231;53.988;9.470;2023-05-10T00:00:02;16.60;49.30
2441;DHT22;1231;53.988;9.470;2023-05-10T00:02:55;16.60;49.60
2441;DHT22;1231;53.988;9.470;2023-05-10T00:05:46;16.50;49.90
2441;DHT22;1231;53.988;9.470;2023-05-10T00:08:37;16.50;50.10
2441;DHT22;1231;53.988;9.470;2023-05-10T00:11:28;16.50;50.50
2441;DHT22;1231;53.988;9.470;2023-05-10T00:14:19;16.40;50.50
2441;DHT22;1231;53.988;9.470;2023-05-10T00:17:10;16.30;51.00
2441;DHT22;1231;53.988;9.470;2023-05-10T00:20:01;16.20;51.10
2441;DHT22;1231;53.988;9.470;2023-05-10T00:22:52;16.10;50.90
2441;DHT22;1231;53.988;9.470;2023-05-10T00:25:42;16.10;51.40
2441;DHT22;1231;53.988;9.470;2023-05-10T00:28:33;16.00;51.40
2441;DHT22;1231;53.988;9.470;2023-05-10T00:31:24;16.00;51.70
2441;DHT22;1231;53.988;9.470;2023-05-10T00:34:15;15.90;51.90
2441;DHT22;1231;53.988;9.470;2023-05-10T00:37:06;15.80;52.60
2441;DHT22;1231;53.988;9.470;2023-05-10T00:39:57;15.70;52.90
2441;DHT22;1231;53.988;9.470;2023-05-10T00:42:48;15.60;53.10
2441;DHT22;1231;53.988;9.470;2023-05-10T00:45:40;15.50;53.20
2441;DHT22;1231;53.988;9.470;2023-05-10T00:48:31;15.50;53.40
2441;DHT22;1231;53.988;9.470;2023-05-10T00:51:22;15.40;53.70
2441;DHT22;1231;53.988;9.470;2023-05-10T00:54:14;15.40;54.00
2441;DHT22;1231;53.988;9.470;2023-05-10T00:57:05;15.30;54.30
2441;DHT22;1231;53.988;9.470;2023-05-10T00:59:57;15.20;54.40
2441;DHT22;1231;53.988;9.470;2023-05-10T01:02:48;15.20;55.10
2441;DHT22;1231;53.988;9.470;2023-05-10T01:05:40;15.10;55.20
2441;DHT22;1231;53.988;9.470;2023-05-10T01:08:31;15.00;55.50
2441;DHT22;1231;53.988;9.470;2023-05-10T01:11:22;15.00;56.10
2441;DHT22;1231;53.988;9.470;2023-05-10T01:14:13;14.90;56.60
2441;DHT22;1231;53.988;9.470;2023-05-10T01:17:05;14.80;57.20
2441;DHT22;1231;53.988;9.470;2023-05-10T01:19:58;14.70;57.40
2441;DHT22;1231;53.988;9.470;2023-05-10T01:26:39;14.50;57.80
2441;DHT22;1231;53.988;9.470;2023-05-10T01:33:06;14.40;58.20
2441;DHT22;1231;53.988;9.470;2023-05-10T01:36:21;14.30;58.30
2441;DHT22;1231;53.988;9.470;2023-05-10T01:42:25;14.10;59.60
2441;DHT22;1231;53.988;9.470;2023-05-10T01:45:27;14.00;59.90
2441;DHT22;1231;53.988;9.470;2023-05-10T01:48:20;14.00;60.20
2441;DHT22;1231;53.988;9.470;2023-05-10T01:51:13;13.90;60.20
2441;DHT22;1231;53.988;9.470;2023-05-10T01:54:07;13.90;60.70
2441;DHT22;1231;53.988;9.470;2023-05-10T01:57:03;13.80;61.00
2441;DHT22;1231;53.988;9.470;2023-05-10T01:59:56;13.70;61.40
2441;DHT22;1231;53.988;9.470;2023-05-10T02:02:49;13.60;61.50
2441;DHT22;1231;53.988;9.470;2023-05-10T02:05:41;13.60;61.70
2441;DHT22;1231;53.988;9.470;2023-05-10T02:08:36;13.50;62.00
2441;DHT22;1231;53.988;9.470;2023-05-10T02:11:28;13.50;62.20
2441;DHT22;1231;53.988;9.470;2023-05-10T02:14:28;13.40;62.50
2441;DHT22;1231;53.988;9.470;2023-05-10T02:17:21;13.40;62.70
2441;DHT22;1231;53.988;9.470;2023-05-10T02:20:14;13.40;62.90
2441;DHT22;1231;53.988;9.470;2023-05-10T02:23:13;13.30;62.90
2441;DHT22;1231;53.988;9.470;2023-05-10T02:26:06;13.30;63.00
2441;DHT22;1231;53.988;9.470;2023-05-10T02:28:59;13.30;63.20
2441;DHT22;1231;53.988;9.470;2023-05-10T02:31:54;13.30;63.10
2441;DHT22;1231;53.988;9.470;2023-05-10T02:34:46;13.30;63.20
2441;DHT22;1231;53.988;9.470;2023-05-10T02:37:43;13.20;63.60
2441;DHT22;1231;53.988;9.470;2023-05-10T02:40:35;13.20;63.90
2441;DHT22;1231;53.988;9.470;2023-05-10T02:43:28;13.10;64.10
2441;DHT22;1231;53.988;9.470;2023-05-10T02:46:20;13.10;64.20
2441;DHT22;1231;53.988;9.470;2023-05-10T02:49:12;13.10;64.30
2441;DHT22;1231;53.988;9.470;2023-05-10T02:52:05;13.00;64.40
2441;DHT22;1231;53.988;9.470;2023-05-10T02:55:02;13.00;64.60
2441;DHT22;1231;53.988;9.470;2023-05-10T02:57:58;13.00;65.00
2441;DHT22;1231;53.988;9.470;2023-05-10T03:00:49;12.90;65.10
2441;DHT22;1231;53.988;9.470;2023-05-10T03:03:41;12.90;65.30
2441;DHT22;1231;53.988;9.470;2023-05-10T03:06:32;12.90;65.40
2441;DHT22;1231;53.988;9.470;2023-05-10T03:09:23;12.90;65.50
2441;DHT22;1231;53.988;9.470;2023-05-10T03:12:51;12.90;65.50
2441;DHT22;1231;53.988;9.470;2023-05-10T03:18:56;12.80;65.50
2441;DHT22;1231;53.988;9.470;2023-05-10T03:21:50;12.80;65.60
2441;DHT22;1231;53.988;9.470;2023-05-10T03:24:53;12.80;65.60
2441;DHT22;1231;53.988;9.470;2023-05-10T03:27:45;12.90;65.50
2441;DHT22;1231;53.988;9.470;2023-05-10T03:30:37;12.90;65.50
2441;DHT22;1231;53.988;9.470;2023-05-10T03:33:29;12.90;65.40
2441;DHT22;1231;53.988;9.470;2023-05-10T03:36:20;13.00;65.30
2441;DHT22;1231;53.988;9.470;2023-05-10T03:39:11;13.00;65.30
2441;DHT22;1231;53.988;9.470;2023-05-10T03:42:02;13.00;65.30
2441;DHT22;1231;53.988;9.470;2023-05-10T03:44:53;13.00;65.30
2441;DHT22;1231;53.988;9.470;2023-05-10T03:47:44;13.00;65.30
2441;DHT22;1231;53.988;9.470;2023-05-10T03:50:35;13.00;65.20
2441;DHT22;1231;53.988;9.470;2023-05-10T03:53:26;13.10;65.20
2441;DHT22;1231;53.988;9.470;2023-05-10T03:56:17;13.10;65.10
2441;DHT22;1231;53.988;9.470;2023-05-10T03:59:08;13.10;65.00
2441;DHT22;1231;53.988;9.470;2023-05-10T04:01:59;13.10;65.00
2441;DHT22;1231;53.988;9.470;2023-05-10T04:04:50;13.10;65.10
2441;DHT22;1231;53.988;9.470;2023-05-10T04:07:41;13.20;65.20
2441;DHT22;1231;53.988;9.470;2023-05-10T04:10:32;13.20;65.30
2441;DHT22;1231;53.988;9.470;2023-05-10T04:13:23;13.30;65.10
2441;DHT22;1231;53.988;9.470;2023-05-10T04:16:14;13.30;65.10
2441;DHT22;1231;53.988;9.470;2023-05-10T04:19:05;13.40;65.10
2441;DHT22;1231;53.988;9.470;2023-05-10T04:21:56;13.50;64.80
2441;DHT22;1231;53.988;9.470;2023-05-10T04:24:47;13.50;64.80
2441;DHT22;1231;53.988;9.470;2023-05-10T04:27:38;13.60;64.60
2441;DHT22;1231;53.988;9.470;2023-05-10T04:30:29;13.70;64.40
2441;DHT22;1231;53.988;9.470;2023-05-10T04:33:20;13.80;64.20
2441;DHT22;1231;53.988;9.470;2023-05-10T04:36:11;13.80;64.00
2441;DHT22;1231;53.988;9.470;2023-05-10T04:39:03;13.90;63.70
2441;DHT22;1231;53.988;9.470;2023-05-10T04:41:54;14.00;63.50
2441;DHT22;1231;53.988;9.470;2023-05-10T04:44:45;14.10;63.40
2441;DHT22;1231;53.988;9.470;2023-05-10T04:47:36;14.10;63.40
2441;DHT22;1231;53.988;9.470;2023-05-10T04:50:27;14.20;63.10
2441;DHT22;1231;53.988;9.470;2023-05-10T04:53:18;14.30;62.80
2441;DHT22;1231;53.988;9.470;2023-05-10T04:56:09;14.30;62.90
2441;DHT22;1231;53.988;9.470;2023-05-10T04:59:00;14.40;62.60
2441;DHT22;1231;53.988;9.470;2023-05-10T05:01:51;14.50;62.60
2441;DHT22;1231;53.988;9.470;2023-05-10T05:04:42;14.50;62.50
2441;DHT22;1231;53.988;9.470;2023-05-10T05:07:33;14.70;62.10
2441;DHT22;1231;53.988;9.470;2023-05-10T05:10:23;14.80;62.20
2441;DHT22;1231;53.988;9.470;2023-05-10T05:13:14;15.00;62.00
2441;DHT22;1231;53.988;9.470;2023-05-10T05:16:05;15.10;61.50
2441;DHT22;1231;53.988;9.470;2023-05-10T05:18:56;15.20;61.50
2441;DHT22;1231;53.988;9.470;2023-05-10T05:21:47;15.30;60.80
2441;DHT22;1231;53.988;9.470;2023-05-10T05:24:38;15.30;60.60
2441;DHT22;1231;53.988;9.470;2023-05-10T05:27:29;15.30;60.20
2441;DHT22;1231;53.988;9.470;2023-05-10T05:30:20;15.30;60.30
2441;DHT22;1231;53.988;9.470;2023-05-10T05:33:13;15.30;60.60
2441;DHT22;1231;53.988;9.470;2023-05-10T05:36:05;15.30;60.60
2441;DHT22;1231;53.988;9.470;2023-05-10T05:38:56;15.30;60.50
2441;DHT22;1231;53.988;9.470;2023-05-10T05:41:47;15.30;60.20
2441;DHT22;1231;53.988;9.470;2023-05-10T05:44:38;15.30;60.20
2441;DHT22;1231;53.988;9.470;2023-05-10T05:47:29;15.30;60.20
2441;DHT22;1231;53.988;9.470;2023-05-10T05:50:20;15.40;60.30
2441;DHT22;1231;53.988;9.470;2023-05-10T05:53:11;15.40;60.00
2441;DHT22;1231;53.988;9.470;2023-05-10T05:56:02;15.50;59.80
2441;DHT22;1231;53.988;9.470;2023-05-10T05:58:53;15.50;60.30
2441;DHT22;1231;53.988;9.470;2023-05-10T06:01:44;15.60;59.90
2441;DHT22;1231;53.988;9.470;2023-05-10T06:04:35;15.70;60.00
2441;DHT22;1231;53.988;9.470;2023-05-10T06:07:26;15.80;59.90
2441;DHT22;1231;53.988;9.470;2023-05-10T06:10:16;15.90;59.50
2441;DHT22;1231;53.988;9.470;2023-05-10T06:13:07;16.00;59.10
2441;DHT22;1231;53.988;9.470;2023-05-10T06:15:58;16.20;59.30
2441;DHT22;1231;53.988;9.470;2023-05-10T06:18:49;16.30;59.40
2441;DHT22;1231;53.988;9.470;2023-05-10T06:21:40;16.50;58.80
2441;DHT22;1231;53.988;9.470;2023-05-10T06:24:31;16.60;58.50
2441;DHT22;1231;53.988;9.470;2023-05-10T06:27:22;16.80;58.40
2441;DHT22;1231;53.988;9.470;2023-05-10T06:30:13;17.00;58.20
2441;DHT22;1231;53.988;9.470;2023-05-10T06:33:05;17.20;57.90
2441;DHT22;1231;53.988;9.470;2023-05-10T06:35:56;17.40;57.50
2441;DHT22;1231;53.988;9.470;2023-05-10T06:38:47;17.40;57.10
2441;DHT22;1231;53.988;9.470;2023-05-10T06:41:39;17.50;56.60
2441;DHT22;1231;53.988;9.470;2023-05-10T06:44:30;17.60;56.80
2441;DHT22;1231;53.988;9.470;2023-05-10T06:47:21;17.60;56.00
2441;DHT22;1231;53.988;9.470;2023-05-10T06:50:12;17.70;56.60
2441;DHT22;1231;53.988;9.470;2023-05-10T06:53:03;17.90;56.90
2441;DHT22;1231;53.988;9.470;2023-05-10T06:55:54;18.00;57.10
2441;DHT22;1231;53.988;9.470;2023-05-10T06:58:45;18.10;56.30
2441;DHT22;1231;53.988;9.470;2023-05-10T07:01:36;18.20;55.90
2441;DHT22;1231;53.988;9.470;2023-05-10T07:04:27;18.30;56.00
2441;DHT22;1231;53.988;9.470;2023-05-10T07:07:18;18.40;55.50
2441;DHT22;1231;53.988;9.470;2023-05-10T07:10:09;18.50;56.00
2441;DHT22;1231;53.988;9.470;2023-05-10T07:13:00;18.60;55.70
2441;DHT22;1231;53.988;9.470;2023-05-10T07:15:51;18.70;55.70
2441;DHT22;1231;53.988;9.470;2023-05-10T07:18:42;18.70;55.10
2441;DHT22;1231;53.988;9.470;2023-05-10T07:21:33;18.70;55.30
2441;DHT22;1231;53.988;9.470;2023-05-10T07:24:25;18.80;55.70
2441;DHT22;1231;53.988;9.470;2023-05-10T07:27:16;18.80;56.00
2441;DHT22;1231;53.988;9.470;2023-05-10T07:30:07;18.90;55.60
2441;DHT22;1231;53.988;9.470;2023-05-10T07:32:58;19.00;54.80
2441;DHT22;1231;53.988;9.470;2023-05-10T07:35:50;19.10;55.20
2441;DHT22;1231;53.988;9.470;2023-05-10T07:38:40;19.20;54.90
2441;DHT22;1231;53.988;9.470;2023-05-10T07:41:31;19.20;54.20
2441;DHT22;1231;53.988;9.470;2023-05-10T07:44:23;19.30;54.90
2441;DHT22;1231;53.988;9.470;2023-05-10T07:47:14;19.40;55.20
2441;DHT22;1231;53.988;9.470;2023-05-10T07:50:05;19.40;55.50
2441;DHT22;1231;53.988;9.470;2023-05-10T07:52:57;19.50;56.00
2441;DHT22;1231;53.988;9.470;2023-05-10T07:55:51;19.60;55.40
2441;DHT22;1231;53.988;9.470;2023-05-10T07:58:45;19.60;55.10
2441;DHT22;1231;53.988;9.470;2023-05-10T08:01:36;19.70;55.10
2441;DHT22;1231;53.988;9.470;2023-05-10T08:04:26;19.80;55.00
2441;DHT22;1231;53.988;9.470;2023-05-10T08:07:17;19.90;55.30
2441;DHT22;1231;53.988;9.470;2023-05-10T08:10:09;20.10;54.80
2441;DHT22;1231;53.988;9.470;2023-05-10T08:13:01;20.20;55.00
2441;DHT22;1231;53.988;9.470;2023-05-10T08:15:52;20.30;55.00
2441;DHT22;1231;53.988;9.470;2023-05-10T08:18:44;20.40;54.60
2441;DHT22;1231;53.988;9.470;2023-05-10T08:21:37;20.50;54.70
2441;DHT22;1231;53.988;9.470;2023-05-10T08:24:34;20.70;54.60
2441;DHT22;1231;53.988;9.470;2023-05-10T08:27:28;20.80;54.00
2441;DHT22;1231;53.988;9.470;2023-05-10T08:30:19;20.80;53.40
2441;DHT22;1231;53.988;9.470;2023-05-10T08:33:10;20.90;53.50
2441;DHT22;1231;53.988;9.470;2023-05-10T08:36:01;20.90;53.60
2441;DHT22;1231;53.988;9.470;2023-05-10T08:38:53;20.80;53.80
2441;DHT22;1231;53.988;9.470;2023-05-10T08:41:45;20.80;53.80
2441;DHT22;1231;53.988;9.470;2023-05-10T08:44:37;20.70;54.00
2441;DHT22;1231;53.988;9.470;2023-05-10T08:47:29;20.60;54.30
2441;DHT22;1231;53.988;9.470;2023-05-10T08:50:20;20.70;54.80
2441;DHT22;1231;53.988;9.470;2023-05-10T08:53:13;20.70;55.60
2441;DHT22;1231;53.988;9.470;2023-05-10T08:56:04;20.80;55.30
2441;DHT22;1231;53.988;9.470;2023-05-10T08:58:56;20.80;56.00
2441;DHT22;1231;53.988;9.470;2023-05-10T09:01:48;20.90;55.50
2441;DHT22;1231;53.988;9.470;2023-05-10T09:04:40;20.90;55.50
2441;DHT22;1231;53.988;9.470;2023-05-10T09:07:31;20.90;55.80
2441;DHT22;1231;53.988;9.470;2023-05-10T09:10:23;20.80;56.10
2441;DHT22;1231;53.988;9.470;2023-05-10T09:13:23;20.70;56.70
2441;DHT22;1231;53.988;9.470;2023-05-10T09:16:15;20.60;57.00
2441;DHT22;1231;53.988;9.470;2023-05-10T09:19:06;20.50;57.40
2441;DHT22;1231;53.988;9.470;2023-05-10T09:21:58;20.40;57.90
2441;DHT22;1231;53.988;9.470;2023-05-10T09:25:07;20.30;58.70
2441;DHT22;1231;53.988;9.470;2023-05-10T09:27:58;20.20;58.90
2441;DHT22;1231;53.988;9.470;2023-05-10T09:30:53;20.10;59.20
2441;DHT22;1231;53.988;9.470;2023-05-10T09:33:45;20.10;59.50
2441;DHT22;1231;53.988;9.470;2023-05-10T09:36:36;20.00;59.50
2441;DHT22;1231;53.988;9.470;2023-05-10T09:39:39;19.80;59.70
2441;DHT22;1231;53.988;9.470;2023-05-10T09:42:31;19.50;59.70
2441;DHT22;1231;53.988;9.470;2023-05-10T09:45:24;19.30;60.20
2441;DHT22;1231;53.988;9.470;2023-05-10T09:48:15;19.10;60.70
2441;DHT22;1231;53.988;9.470;2023-05-10T09:51:06;18.90;60.90
2441;DHT22;1231;53.988;9.470;2023-05-10T09:54:14;18.70;61.20
2441;DHT22;1231;53.988;9.470;2023-05-10T09:57:05;18.60;61.60
2441;DHT22;1231;53.988;9.470;2023-05-10T10:00:00;18.40;62.10
2441;DHT22;1231;53.988;9.470;2023-05-10T10:02:58;18.30;62.70
2441;DHT22;1231;53.988;9.470;2023-05-10T10:05:49;18.20;63.20
2441;DHT22;1231;53.988;9.470;2023-05-10T10:08:40;18.10;63.50
2441;DHT22;1231;53.988;9.470;2023-05-10T10:11:33;18.00;63.80
2441;DHT22;1231;53.988;9.470;2023-05-10T10:14:24;17.90;64.40
2441;DHT22;1231;53.988;9.470;2023-05-10T10:17:16;17.80;65.00
2441;DHT22;1231;53.988;9.470;2023-05-10T10:20:08;17.70;65.20
2441;DHT22;1231;53.988;9.470;2023-05-10T10:22:59;17.50;65.40
2441;DHT22;1231;53.988;9.470;2023-05-10T10:25:50;17.40;65.80
2441;DHT22;1231;53.988;9.470;2023-05-10T10:29:08;17.30;66.20
2441;DHT22;1231;53.988;9.470;2023-05-10T10:34:55;17.10;67.40
2441;DHT22;1231;53.988;9.470;2023-05-10T10:37:49;17.00;68.00
2441;DHT22;1231;53.988;9.470;2023-05-10T10:40:40;17.00;68.60
2441;DHT22;1231;53.988;9.470;2023-05-10T10:43:31;17.00;69.40
2441;DHT22;1231;53.988;9.470;2023-05-10T10:46:22;17.00;70.10
2441;DHT22;1231;53.988;9.470;2023-05-10T10:49:14;17.20;71.00
2441;DHT22;1231;53.988;9.470;2023-05-10T10:52:20;17.30;71.60
2441;DHT22;1231;53.988;9.470;2023-05-10T10:55:16;17.40;71.90
2441;DHT22;1231;53.988;9.470;2023-05-10T10:58:09;17.60;72.00
2441;DHT22;1231;53.988;9.470;2023-05-10T11:01:17;17.70;72.20
2441;DHT22;1231;53.988;9.470;2023-05-10T11:07:16;17.90;72.30
2441;DHT22;1231;53.988;9.470;2023-05-10T11:10:09;18.00;72.40
2441;DHT22;1231;53.988;9.470;2023-05-10T11:15:52;18.20;72.40
2441;DHT22;1231;53.988;9.470;2023-05-10T11:19:03;18.30;72.50
2441;DHT22;1231;53.988;9.470;2023-05-10T11:24:57;18.50;72.50
2441;DHT22;1231;53.988;9.470;2023-05-10T11:27:51;18.50;72.30
2441;DHT22;1231;53.988;9.470;2023-05-10T11:30:43;18.60;72.40
2441;DHT22;1231;53.988;9.470;2023-05-10T11:33:52;18.70;72.30
2441;DHT22;1231;53.988;9.470;2023-05-10T11:36:43;18.70;72.10
2441;DHT22;1231;53.988;9.470;2023-05-10T11:39:34;18.70;71.90
2441;DHT22;1231;53.988;9.470;2023-05-10T11:42:25;18.50;71.90
2441;DHT22;1231;53.988;9.470;2023-05-10T11:45:16;18.30;71.90
2441;DHT22;1231;53.988;9.470;2023-05-10T11:48:07;18.00;72.20
2441;DHT22;1231;53.988;9.470;2023-05-10T11:50:58;17.80;72.50
2441;DHT22;1231;53.988;9.470;2023-05-10T11:53:53;17.60;72.90
2441;DHT22;1231;53.988;9.470;2023-05-10T11:56:44;17.40;73.50
2441;DHT22;1231;53.988;9.470;2023-05-10T11:59:36;17.30;73.90
2441;DHT22;1231;53.988;9.470;2023-05-10T12:02:28;17.20;74.40
2441;DHT22;1231;53.988;9.470;2023-05-10T12:05:19;17.10;74.60
2441;DHT22;1231;53.988;9.470;2023-05-10T12:08:11;17.00;74.90
2441;DHT22;1231;53.988;9.470;2023-05-10T12:11:08;17.00;75.20
2441;DHT22;1231;53.988;9.470;2023-05-10T12:13:59;16.90;75.70
2441;DHT22;1231;53.988;9.470;2023-05-10T12:16:50;16.90;76.10
2441;DHT22;1231;53.988;9.470;2023-05-10T12:19:41;16.90;76.60
2441;DHT22;1231;53.988;9.470;2023-05-10T12:22:33;16.90;76.90
2441;DHT22;1231;53.988;9.470;2023-05-10T12:25:30;17.00;77.20
2441;DHT22;1231;53.988;9.470;2023-05-10T12:28:22;17.10;77.10
2441;DHT22;1231;53.988;9.470;2023-05-10T12:31:13;17.20;77.20
2441;DHT22;1231;53.988;9.470;2023-05-10T12:34:04;17.30;77.10
2441;DHT22;1231;53.988;9.470;2023-05-10T12:36:55;17.40;77.10
2441;DHT22;1231;53.988;9.470;2023-05-10T12:39:46;17.60;77.20
2441;DHT22;1231;53.988;9.470;2023-05-10T12:42:38;17.70;77.20
2441;DHT22;1231;53.988;9.470;2023-05-10T12:45:30;17.70;77.10
2441;DHT22;1231;53.988;9.470;2023-05-10T12:48:21;17.80;77.10
2441;DHT22;1231;53.988;9.470;2023-05-10T12:51:12;17.90;77.20
2441;DHT22;1231;53.988;9.470;2023-05-10T12:54:06;18.00;76.90
2441;DHT22;1231;53.988;9.470;2023-05-10T12:56:56;18.00;76.80
2441;DHT22;1231;53.988;9.470;2023-05-10T12:59:47;18.00;76.50
2441;DHT22;1231;53.988;9.470;2023-05-10T13:02:38;18.00;76.60
2441;DHT22;1231;53.988;9.470;2023-05-10T13:05:29;18.00;76.50
2441;DHT22;1231;53.988;9.470;2023-05-10T13:08:20;17.90;76.40
2441;DHT22;1231;53.988;9.470;2023-05-10T13:11:11;18.00;76.70
2441;DHT22;1231;53.988;9.470;2023-05-10T13:14:02;18.10;77.00
2441;DHT22;1231;53.988;9.470;2023-05-10T13:16:53;18.20;76.70
2441;DHT22;1231;53.988;9.470;2023-05-10T13:19:44;18.20;76.50
2441;DHT22;1231;53.988;9.470;2023-05-10T13:22:35;18.30;76.60
2441;DHT22;1231;53.988;9.470;2023-05-10T13:25:26;18.40;76.90
2441;DHT22;1231;53.988;9.470;2023-05-10T13:28:17;18.50;77.00
2441;DHT22;1231;53.988;9.470;2023-05-10T13:31:08;18.60;77.00
2441;DHT22;1231;53.988;9.470;2023-05-10T13:33:59;18.80;77.10
2441;DHT22;1231;53.988;9.470;2023-05-10T13:36:50;19.00;76.90
2441;DHT22;1231;53.988;9.470;2023-05-10T13:39:41;19.10;76.40
2441;DHT22;1231;53.988;9.470;2023-05-10T13:42:32;19.20;76.10
2441;DHT22;1231;53.988;9.470;2023-05-10T13:45:24;19.20;75.40
2441;DHT22;1231;53.988;9.470;2023-05-10T13:48:15;19.20;75.20
2441;DHT22;1231;53.988;9.470;2023-05-10T13:51:06;19.10;75.10
2441;DHT22;1231;53.988;9.470;2023-05-10T13:53:57;19.10;75.40
2441;DHT22;1231;53.988;9.470;2023-05-10T13:56:48;19.10;75.40
2441;DHT22;1231;53.988;9.470;2023-05-10T13:59:39;19.10;75.40
2441;DHT22;1231;53.988;9.470;2023-05-10T14:02:30;19.10;75.60
2441;DHT22;1231;53.988;9.470;2023-05-10T14:05:21;19.20;75.90
2441;DHT22;1231;53.988;9.470;2023-05-10T14:08:13;19.30;75.90
2441;DHT22;1231;53.988;9.470;2023-05-10T14:11:05;19.30;75.40
2441;DHT22;1231;53.988;9.470;2023-05-10T14:13:56;19.40;75.60
2441;DHT22;1231;53.988;9.470;2023-05-10T14:16:47;19.50;75.40
2441;DHT22;1231;53.988;9.470;2023-05-10T14:19:44;19.60;75.50
2441;DHT22;1231;53.988;9.470;2023-05-10T14:22:35;19.80;75.10
